sensor_id;sensor_type;location;lat;lon;timestamp;temperature;humidity
11961;DHT22;6040;49.358;11.140;2023-07-29T00:00:08;17.00;99.90
11961;DHT22;6040;49.358;11.140;2023-07-29T00:02:36;17.00;99.90
11961;DHT22;6040;49.358;11.140;2023-07-29T00:05:03;17.00;99.90
11961;DHT22;6040;49.358;11.140;2023-07-29T00:07:30;17.00;99.90
11961;DHT22;6040;49.358;11.140;2023-07-29T00:09:57;16.90;99.90
11961;DHT22;6040;49.358;11.140;2023-07-29T00:12:25;16.90;99.90
11961;DHT22;6040;49.358;11.140;2023-07-29T00:14:52;16.90;99.90
11961;DHT22;6040;49.358;11.140;2023-07-29T00:17:19;16.80;99.90
11961;DHT22;6040;49.358;11.140;2023-07-29T00:19:46;16.80;99.90
11961;DHT22;6040;49.358;11.140;2023-07-29T00:22:13;16.70;99.90
11961;DHT22;6040;49.358;11.140;2023-07-29T00:24:40;16.70;99.90
11961;DHT22;6040;49.358;11.140;2023-07-29T00:27:07;16.70;99.90
11961;DHT22;6040;49.358;11.140;2023-07-29T00:29:35;16.70;99.90
11961;DHT22;6040;49.358;11.140;2023-07-29T00:32:02;18.40;99.90
11961;DHT22;6040;49.358;11.140;2023-07-29T00:34:29;16.70;99.90
11961;DHT22;6040;49.358;11.140;2023-07-29T00:36:56;16.70;99.90
11961;DHT22;6040;49.358;11.140;2023-07-29T00:39:23;16.60;99.90
11961;DHT22;6040;49.358;11.140;2023-07-29T00:41:50;16.60;99.90
11961;DHT22;6040;49.358;11.140;2023-07-29T00:44:16;16.60;99.90
11961;DHT22;6040;49.358;11.140;2023-07-29T00:46:46;16.60;99.90
11961;DHT22;6040;49.358;11.140;2023-07-29T00:49:13;16.60;99.90
11961;DHT22;6040;49.358;11.140;2023-07-29T00:51:40;16.60;99.90
11961;DHT22;6040;49.358;11.140;2023-07-29T00:54:07;16.60;99.90
11961;DHT22;6040;49.358;11.140;2023-07-29T00:56:34;16.60;99.90
11961;DHT22;6040;49.358;11.140;2023-07-29T00:59:01;16.60;99.90
11961;DHT22;6040;49.358;11.140;2023-07-29T01:01:28;16.60;99.90
11961;DHT22;6040;49.358;11.140;2023-07-29T01:03:57;16.70;99.90
11961;DHT22;6040;49.358;11.140;2023-07-29T01:06:29;16.70;99.90
11961;DHT22;6040;49.358;11.140;2023-07-29T01:09:01;16.80;99.90
11961;DHT22;6040;49.358;11.140;2023-07-29T01:11:35;16.70;99.90
11961;DHT22;6040;49.358;11.140;2023-07-29T01:14:10;16.80;99.90
11961;DHT22;6040;49.358;11.140;2023-07-29T01:16:42;16.70;99.90
11961;DHT22;6040;49.358;11.140;2023-07-29T01:19:26;16.70;99.90
11961;DHT22;6040;49.358;11.140;2023-07-29T01:21:56;16.60;99.90
11961;DHT22;6040;49.358;11.140;2023-07-29T01:24:25;16.60;99.90
11961;DHT22;6040;49.358;11.140;2023-07-29T01:26:52;16.60;99.90
11961;DHT22;6040;49.358;11.140;2023-07-29T01:29:18;16.60;99.90
11961;DHT22;6040;49.358;11.140;2023-07-29T01:31:47;16.60;99.90
11961;DHT22;6040;49.358;11.140;2023-07-29T01:34:22;16.60;99.90
11961;DHT22;6040;49.358;11.140;2023-07-29T01:36:51;16.50;99.90
11961;DHT22;6040;49.358;11.140;2023-07-29T01:39:20;16.40;99.90
11961;DHT22;6040;49.358;11.140;2023-07-29T01:41:50;16.40;99.90
11961;DHT22;6040;49.358;11.140;2023-07-29T01:44:18;16.40;99.90
11961;DHT22;6040;49.358;11.140;2023-07-29T01:46:45;16.40;99.90
11961;DHT22;6040;49.358;11.140;2023-07-29T01:49:12;16.30;99.90
11961;DHT22;6040;49.358;11.140;2023-07-29T01:51:38;16.30;99.90
11961;DHT22;6040;49.358;11.140;2023-07-29T01:54:05;16.20;99.90
11961;DHT22;6040;49.358;11.140;2023-07-29T01:56:32;16.30;99.90
11961;DHT22;6040;49.358;11.140;2023-07-29T01:59:00;16.30;99.90
11961;DHT22;6040;49.358;11.140;2023-07-29T02:01:28;16.30;99.90
11961;DHT22;6040;49.358;11.140;2023-07-29T02:03:55;16.30;99.90
11961;DHT22;6040;49.358;11.140;2023-07-29T02:06:22;16.20;99.90
11961;DHT22;6040;49.358;11.140;2023-07-29T02:08:49;16.20;99.90
11961;DHT22;6040;49.358;11.140;2023-07-29T02:11:15;16.20;99.90
11961;DHT22;6040;49.358;11.140;2023-07-29T02:13:42;16.10;99.90
11961;DHT22;6040;49.358;11.140;2023-07-29T02:16:10;16.10;99.90
11961;DHT22;6040;49.358;11.140;2023-07-29T02:18:37;16.10;99.90
11961;DHT22;6040;49.358;11.140;2023-07-29T02:21:04;16.00;99.90
11961;DHT22;6040;49.358;11.140;2023-07-29T02:23:31;16.00;99.90
11961;DHT22;6040;49.358;11.140;2023-07-29T02:25:57;15.90;99.90
11961;DHT22;6040;49.358;11.140;2023-07-29T02:28:24;15.90;99.90
11961;DHT22;6040;49.358;11.140;2023-07-29T02:31:13;15.90;99.90
11961;DHT22;6040;49.358;11.140;2023-07-29T02:33:40;15.80;99.90
11961;DHT22;6040;49.358;11.140;2023-07-29T02:36:07;15.80;99.90
11961;DHT22;6040;49.358;11.140;2023-07-29T02:38:34;15.80;99.90
11961;DHT22;6040;49.358;11.140;2023-07-29T02:41:01;15.80;99.90
11961;DHT22;6040;49.358;11.140;2023-07-29T02:43:27;15.80;99.90
11961;DHT22;6040;49.358;11.140;2023-07-29T02:45:54;15.80;99.90
11961;DHT22;6040;49.358;11.140;2023-07-29T02:48:22;15.80;99.90
11961;DHT22;6040;49.358;11.140;2023-07-29T02:50:49;15.70;99.90
11961;DHT22;6040;49.358;11.140;2023-07-29T02:53:17;15.70;99.90
11961;DHT22;6040;49.358;11.140;2023-07-29T02:55:44;15.70;99.90
11961;DHT22;6040;49.358;11.140;2023-07-29T02:58:10;15.60;99.90
11961;DHT22;6040;49.358;11.140;2023-07-29T03:00:37;15.60;99.90
11961;DHT22;6040;49.358;11.140;2023-07-29T03:03:07;15.50;99.90
11961;DHT22;6040;49.358;11.140;2023-07-29T03:05:35;15.50;99.90
11961;DHT22;6040;49.358;11.140;2023-07-29T03:08:03;15.50;99.90
11961;DHT22;6040;49.358;11.140;2023-07-29T03:10:30;15.50;99.90
11961;DHT22;6040;49.358;11.140;2023-07-29T03:12:57;15.50;99.90
11961;DHT22;6040;49.358;11.140;2023-07-29T03:15:24;15.40;99.90
11961;DHT22;6040;49.358;11.140;2023-07-29T03:17:51;15.40;99.90
11961;DHT22;6040;49.358;11.140;2023-07-29T03:20:18;15.40;99.90
11961;DHT22;6040;49.358;11.140;2023-07-29T03:22:46;15.30;99.90
11961;DHT22;6040;49.358;11.140;2023-07-29T03:25:13;15.30;99.90
11961;DHT22;6040;49.358;11.140;2023-07-29T03:27:40;15.30;99.90
11961;DHT22;6040;49.358;11.140;2023-07-29T03:30:07;15.30;99.90
11961;DHT22;6040;49.358;11.140;2023-07-29T03:32:34;15.30;99.90
11961;DHT22;6040;49.358;11.140;2023-07-29T03:35:01;15.30;99.90
11961;DHT22;6040;49.358;11.140;2023-07-29T03:37:28;15.40;99.90
11961;DHT22;6040;49.358;11.140;2023-07-29T03:39:57;15.20;99.90
11961;DHT22;6040;49.358;11.140;2023-07-29T03:42:24;15.20;99.90
11961;DHT22;6040;49.358;11.140;2023-07-29T03:44:50;15.20;99.90
11961;DHT22;6040;49.358;11.140;2023-07-29T03:47:17;15.20;99.90
11961;DHT22;6040;49.358;11.140;2023-07-29T03:49:44;15.20;99.90
11961;DHT22;6040;49.358;11.140;2023-07-29T03:52:11;15.30;99.90
11961;DHT22;6040;49.358;11.140;2023-07-29T03:54:38;15.30;99.90
11961;DHT22;6040;49.358;11.140;2023-07-29T03:57:06;15.40;99.90
11961;DHT22;6040;49.358;11.140;2023-07-29T03:59:33;15.40;99.90
11961;DHT22;6040;49.358;11.140;2023-07-29T04:01:59;15.40;99.90
11961;DHT22;6040;49.358;11.140;2023-07-29T04:04:26;15.50;99.90
11961;DHT22;6040;49.358;11.140;2023-07-29T04:06:53;15.50;99.90
11961;DHT22;6040;49.358;11.140;2023-07-29T04:09:20;15.60;99.90
11961;DHT22;6040;49.358;11.140;2023-07-29T04:11:47;15.70;99.90
11961;DHT22;6040;49.358;11.140;2023-07-29T04:14:15;15.70;99.90
11961;DHT22;6040;49.358;11.140;2023-07-29T04:16:42;15.80;99.90
11961;DHT22;6040;49.358;11.140;2023-07-29T04:19:09;15.90;99.90
11961;DHT22;6040;49.358;11.140;2023-07-29T04:21:35;15.90;99.90
11961;DHT22;6040;49.358;11.140;2023-07-29T04:24:02;15.80;99.90
11961;DHT22;6040;49.358;11.140;2023-07-29T04:26:29;15.90;99.90
11961;DHT22;6040;49.358;11.140;2023-07-29T04:28:56;16.00;99.90
11961;DHT22;6040;49.358;11.140;2023-07-29T04:31:25;15.90;99.90
11961;DHT22;6040;49.358;11.140;2023-07-29T04:33:52;16.00;99.90
11961;DHT22;6040;49.358;11.140;2023-07-29T04:36:18;16.10;99.90
11961;DHT22;6040;49.358;11.140;2023-07-29T04:38:45;16.10;99.90
11961;DHT22;6040;49.358;11.140;2023-07-29T04:41:12;16.20;99.90
11961;DHT22;6040;49.358;11.140;2023-07-29T04:43:39;16.30;99.90
11961;DHT22;6040;49.358;11.140;2023-07-29T04:46:06;16.50;99.90
11961;DHT22;6040;49.358;11.140;2023-07-29T04:48:35;16.50;99.90
11961;DHT22;6040;49.358;11.140;2023-07-29T04:51:02;16.60;99.90
11961;DHT22;6040;49.358;11.140;2023-07-29T04:53:29;16.70;99.90
11961;DHT22;6040;49.358;11.140;2023-07-29T04:55:56;16.80;99.90
11961;DHT22;6040;49.358;11.140;2023-07-29T04:58:23;16.90;99.90
11961;DHT22;6040;49.358;11.140;2023-07-29T05:00:49;17.00;99.90
11961;DHT22;6040;49.358;11.140;2023-07-29T05:03:16;17.00;99.90
11961;DHT22;6040;49.358;11.140;2023-07-29T05:05:44;17.10;99.90
11961;DHT22;6040;49.358;11.140;2023-07-29T05:08:11;17.30;99.90
11961;DHT22;6040;49.358;11.140;2023-07-29T05:10:38;17.40;99.90
11961;DHT22;6040;49.358;11.140;2023-07-29T05:13:05;17.40;99.90
11961;DHT22;6040;49.358;11.140;2023-07-29T05:15:31;17.50;99.90
11961;DHT22;6040;49.358;11.140;2023-07-29T05:17:58;17.60;99.90
11961;DHT22;6040;49.358;11.140;2023-07-29T05:20:25;17.80;99.90
11961;DHT22;6040;49.358;11.140;2023-07-29T05:22:53;17.80;99.90
11961;DHT22;6040;49.358;11.140;2023-07-29T05:25:20;17.80;99.90
11961;DHT22;6040;49.358;11.140;2023-07-29T05:27:47;17.80;99.90
11961;DHT22;6040;49.358;11.140;2023-07-29T05:30:13;17.90;99.90
11961;DHT22;6040;49.358;11.140;2023-07-29T05:32:40;17.90;99.90
11961;DHT22;6040;49.358;11.140;2023-07-29T05:35:07;17.90;99.90
11961;DHT22;6040;49.358;11.140;2023-07-29T05:37:37;17.90;99.90
11961;DHT22;6040;49.358;11.140;2023-07-29T05:40:07;17.90;99.90
11961;DHT22;6040;49.358;11.140;2023-07-29T05:42:34;17.90;99.90
11961;DHT22;6040;49.358;11.140;2023-07-29T05:45:01;17.90;99.90
11961;DHT22;6040;49.358;11.140;2023-07-29T05:47:28;17.90;99.90
11961;DHT22;6040;49.358;11.140;2023-07-29T05:49:55;17.90;99.90
11961;DHT22;6040;49.358;11.140;2023-07-29T05:52:23;18.00;99.90
11961;DHT22;6040;49.358;11.140;2023-07-29T05:54:50;18.10;99.90
11961;DHT22;6040;49.358;11.140;2023-07-29T05:57:18;18.10;99.90
11961;DHT22;6040;49.358;11.140;2023-07-29T05:59:45;18.10;99.90
11961;DHT22;6040;49.358;11.140;2023-07-29T06:02:12;18.20;99.90
11961;DHT22;6040;49.358;11.140;2023-07-29T06:04:39;18.20;99.90
11961;DHT22;6040;49.358;11.140;2023-07-29T06:07:05;18.20;99.90
11961;DHT22;6040;49.358;11.140;2023-07-29T06:09:32;18.20;99.90
11961;DHT22;6040;49.358;11.140;2023-07-29T06:11:59;18.20;99.90
11961;DHT22;6040;49.358;11.140;2023-07-29T06:14:27;18.10;99.90
11961;DHT22;6040;49.358;11.140;2023-07-29T06:16:54;18.00;99.90
11961;DHT22;6040;49.358;11.140;2023-07-29T06:19:21;18.10;99.90
11961;DHT22;6040;49.358;11.140;2023-07-29T06:21:48;18.20;99.90
11961;DHT22;6040;49.358;11.140;2023-07-29T06:24:15;18.10;99.90
11961;DHT22;6040;49.358;11.140;2023-07-29T06:26:41;18.10;99.90
11961;DHT22;6040;49.358;11.140;2023-07-29T06:29:08;18.10;99.90
11961;DHT22;6040;49.358;11.140;2023-07-29T06:31:36;18.00;99.90
11961;DHT22;6040;49.358;11.140;2023-07-29T06:34:03;18.10;99.90
11961;DHT22;6040;49.358;11.140;2023-07-29T06:36:31;18.00;99.90
11961;DHT22;6040;49.358;11.140;2023-07-29T06:38:58;18.10;99.90
11961;DHT22;6040;49.358;11.140;2023-07-29T06:41:25;18.10;99.90
11961;DHT22;6040;49.358;11.140;2023-07-29T06:43:51;18.10;99.90
11961;DHT22;6040;49.358;11.140;2023-07-29T06:46:18;18.00;99.90
11961;DHT22;6040;49.358;11.140;2023-07-29T06:48:46;18.00;99.90
11961;DHT22;6040;49.358;11.140;2023-07-29T06:51:13;18.00;99.90
11961;DHT22;6040;49.358;11.140;2023-07-29T06:53:40;18.00;99.90
11961;DHT22;6040;49.358;11.140;2023-07-29T06:56:07;18.10;99.90
11961;DHT22;6040;49.358;11.140;2023-07-29T06:58:34;18.00;99.90
11961;DHT22;6040;49.358;11.140;2023-07-29T07:01:01;18.00;99.90
11961;DHT22;6040;49.358;11.140;2023-07-29T07:03:28;18.00;99.90
11961;DHT22;6040;49.358;11.140;2023-07-29T07:05:57;18.00;99.90
11961;DHT22;6040;49.358;11.140;2023-07-29T07:08:23;18.00;99.90
11961;DHT22;6040;49.358;11.140;2023-07-29T07:10:50;18.10;99.90
11961;DHT22;6040;49.358;11.140;2023-07-29T07:13:17;18.10;99.90
11961;DHT22;6040;49.358;11.140;2023-07-29T07:15:44;18.20;99.90
11961;DHT22;6040;49.358;11.140;2023-07-29T07:18:11;18.30;99.90
11961;DHT22;6040;49.358;11.140;2023-07-29T07:20:37;18.40;99.90
11961;DHT22;6040;49.358;11.140;2023-07-29T07:23:05;18.40;99.90
11961;DHT22;6040;49.358;11.140;2023-07-29T07:25:36;18.50;99.90
11961;DHT22;6040;49.358;11.140;2023-07-29T07:28:03;18.60;99.90
11961;DHT22;6040;49.358;11.140;2023-07-29T07:30:30;18.70;99.90
11961;DHT22;6040;49.358;11.140;2023-07-29T07:32:57;18.70;99.90
11961;DHT22;6040;49.358;11.140;2023-07-29T07:35:23;18.80;99.90
11961;DHT22;6040;49.358;11.140;2023-07-29T07:37:50;18.80;99.90
11961;DHT22;6040;49.358;11.140;2023-07-29T07:40:18;18.90;99.90
11961;DHT22;6040;49.358;11.140;2023-07-29T07:42:45;19.00;99.90
11961;DHT22;6040;49.358;11.140;2023-07-29T07:45:12;19.20;99.90
11961;DHT22;6040;49.358;11.140;2023-07-29T07:47:38;19.20;99.90
11961;DHT22;6040;49.358;11.140;2023-07-29T07:50:06;19.20;99.90
11961;DHT22;6040;49.358;11.140;2023-07-29T07:52:32;19.30;99.90
11961;DHT22;6040;49.358;11.140;2023-07-29T07:54:59;19.40;99.90
11961;DHT22;6040;49.358;11.140;2023-07-29T07:57:27;19.40;99.90
11961;DHT22;6040;49.358;11.140;2023-07-29T07:59:54;19.40;99.90
11961;DHT22;6040;49.358;11.140;2023-07-29T08:02:21;19.40;99.90
11961;DHT22;6040;49.358;11.140;2023-07-29T08:04:48;19.30;99.90
11961;DHT22;6040;49.358;11.140;2023-07-29T08:07:15;19.20;99.90
11961;DHT22;6040;49.358;11.140;2023-07-29T08:09:42;19.20;99.90
11961;DHT22;6040;49.358;11.140;2023-07-29T08:12:08;19.20;99.90
11961;DHT22;6040;49.358;11.140;2023-07-29T08:14:37;19.20;99.90
11961;DHT22;6040;49.358;11.140;2023-07-29T08:17:04;19.20;99.90
11961;DHT22;6040;49.358;11.140;2023-07-29T08:19:31;19.20;99.90
11961;DHT22;6040;49.358;11.140;2023-07-29T08:21:58;19.30;99.90
11961;DHT22;6040;49.358;11.140;2023-07-29T08:24:24;19.30;99.90
11961;DHT22;6040;49.358;11.140;2023-07-29T08:26:51;19.20;99.90
11961;DHT22;6040;49.358;11.140;2023-07-29T08:29:18;19.20;99.90
11961;DHT22;6040;49.358;11.140;2023-07-29T08:31:46;19.20;99.90
11961;DHT22;6040;49.358;11.140;2023-07-29T08:34:13;19.20;99.90
11961;DHT22;6040;49.358;11.140;2023-07-29T08:36:40;19.10;99.90
11961;DHT22;6040;49.358;11.140;2023-07-29T08:39:07;19.10;99.90
11961;DHT22;6040;49.358;11.140;2023-07-29T08:41:40;19.10;99.90
11961;DHT22;6040;49.358;11.140;2023-07-29T08:44:10;19.20;99.90
11961;DHT22;6040;49.358;11.140;2023-07-29T08:46:39;19.20;99.90
11961;DHT22;6040;49.358;11.140;2023-07-29T08:49:07;19.20;99.90
11961;DHT22;6040;49.358;11.140;2023-07-29T08:51:35;19.20;99.90
11961;DHT22;6040;49.358;11.140;2023-07-29T08:54:02;19.20;99.90
11961;DHT22;6040;49.358;11.140;2023-07-29T08:56:30;19.10;99.90
11961;DHT22;6040;49.358;11.140;2023-07-29T08:58:57;19.10;99.90
11961;DHT22;6040;49.358;11.140;2023-07-29T09:01:26;19.00;99.90
11961;DHT22;6040;49.358;11.140;2023-07-29T09:03:52;19.10;99.90
11961;DHT22;6040;49.358;11.140;2023-07-29T09:06:21;19.00;99.90
11961;DHT22;6040;49.358;11.140;2023-07-29T09:08:51;19.00;99.90
11961;DHT22;6040;49.358;11.140;2023-07-29T09:11:20;19.00;99.90
11961;DHT22;6040;49.358;11.140;2023-07-29T09:13:47;19.00;99.90
11961;DHT22;6040;49.358;11.140;2023-07-29T09:16:14;19.00;99.90
11961;DHT22;6040;49.358;11.140;2023-07-29T09:18:41;19.00;99.90
11961;DHT22;6040;49.358;11.140;2023-07-29T09:21:08;18.90;99.90
11961;DHT22;6040;49.358;11.140;2023-07-29T09:23:40;18.90;99.90
11961;DHT22;6040;49.358;11.140;2023-07-29T09:26:07;19.00;99.90
11961;DHT22;6040;49.358;11.140;2023-07-29T09:28:35;19.00;99.90
11961;DHT22;6040;49.358;11.140;2023-07-29T09:31:02;19.00;99.90
11961;DHT22;6040;49.358;11.140;2023-07-29T09:33:32;19.00;99.90
11961;DHT22;6040;49.358;11.140;2023-07-29T09:36:01;19.00;99.90
11961;DHT22;6040;49.358;11.140;2023-07-29T09:38:28;19.00;99.90
11961;DHT22;6040;49.358;11.140;2023-07-29T09:40:57;19.00;99.90
11961;DHT22;6040;49.358;11.140;2023-07-29T09:43:26;19.00;99.90
11961;DHT22;6040;49.358;11.140;2023-07-29T09:45:55;19.00;99.90
11961;DHT22;6040;49.358;11.140;2023-07-29T09:48:22;19.10;99.90
11961;DHT22;6040;49.358;11.140;2023-07-29T09:50:49;19.10;99.90
11961;DHT22;6040;49.358;11.140;2023-07-29T09:53:17;19.10;99.90
11961;DHT22;6040;49.358;11.140;2023-07-29T09:55:46;19.20;99.90
11961;DHT22;6040;49.358;11.140;2023-07-29T09:58:19;19.30;99.90
11961;DHT22;6040;49.358;11.140;2023-07-29T10:00:47;19.50;99.90
11961;DHT22;6040;49.358;11.140;2023-07-29T10:03:14;19.70;99.90
11961;DHT22;6040;49.358;11.140;2023-07-29T10:05:41;19.80;99.90
11961;DHT22;6040;49.358;11.140;2023-07-29T10:08:09;20.00;99.90
11961;DHT22;6040;49.358;11.140;2023-07-29T10:10:36;20.30;99.90
11961;DHT22;6040;49.358;11.140;2023-07-29T10:13:03;20.40;99.90
11961;DHT22;6040;49.358;11.140;2023-07-29T10:15:33;20.60;99.90
11961;DHT22;6040;49.358;11.140;2023-07-29T10:18:01;20.60;99.90
11961;DHT22;6040;49.358;11.140;2023-07-29T10:20:30;20.70;99.90
11961;DHT22;6040;49.358;11.140;2023-07-29T10:22:59;20.80;99.90
11961;DHT22;6040;49.358;11.140;2023-07-29T10:25:39;20.70;99.90
11961;DHT22;6040;49.358;11.140;2023-07-29T10:28:08;20.70;99.90
11961;DHT22;6040;49.358;11.140;2023-07-29T10:30:36;20.70;99.90
11961;DHT22;6040;49.358;11.140;2023-07-29T10:33:04;20.70;99.90
11961;DHT22;6040;49.358;11.140;2023-07-29T10:35:32;20.80;99.90
11961;DHT22;6040;49.358;11.140;2023-07-29T10:38:00;20.80;99.90
11961;DHT22;6040;49.358;11.140;2023-07-29T10:40:43;20.90;99.90
11961;DHT22;6040;49.358;11.140;2023-07-29T10:43:11;21.10;99.90
11961;DHT22;6040;49.358;11.140;2023-07-29T10:45:41;21.30;99.90
11961;DHT22;6040;49.358;11.140;2023-07-29T10:48:10;21.80;99.90
11961;DHT22;6040;49.358;11.140;2023-07-29T10:50:37;22.10;99.90
11961;DHT22;6040;49.358;11.140;2023-07-29T10:53:04;22.20;99.90
11961;DHT22;6040;49.358;11.140;2023-07-29T10:55:33;22.30;99.90
11961;DHT22;6040;49.358;11.140;2023-07-29T10:58:08;22.80;99.90
11961;DHT22;6040;49.358;11.140;2023-07-29T11:00:35;23.10;99.90
11961;DHT22;6040;49.358;11.140;2023-07-29T11:03:06;23.20;99.90
11961;DHT22;6040;49.358;11.140;2023-07-29T11:05:47;23.70;99.90
11961;DHT22;6040;49.358;11.140;2023-07-29T11:08:22;24.00;99.90
11961;DHT22;6040;49.358;11.140;2023-07-29T11:11:08;24.10;99.90
11961;DHT22;6040;49.358;11.140;2023-07-29T11:13:38;23.40;99.90
11961;DHT22;6040;49.358;11.140;2023-07-29T11:16:05;24.20;99.90
11961;DHT22;6040;49.358;11.140;2023-07-29T11:18:34;24.20;99.90
11961;DHT22;6040;49.358;11.140;2023-07-29T11:21:02;24.10;99.90
11961;DHT22;6040;49.358;11.140;2023-07-29T11:23:31;24.20;99.90
11961;DHT22;6040;49.358;11.140;2023-07-29T11:25:58;24.30;99.90
11961;DHT22;6040;49.358;11.140;2023-07-29T11:28:25;24.40;99.90
11961;DHT22;6040;49.358;11.140;2023-07-29T11:30:53;24.60;99.90
11961;DHT22;6040;49.358;11.140;2023-07-29T11:33:21;24.60;99.90
11961;DHT22;6040;49.358;11.140;2023-07-29T11:35:50;24.60;99.90
11961;DHT22;6040;49.358;11.140;2023-07-29T11:38:19;24.60;99.90
11961;DHT22;6040;49.358;11.140;2023-07-29T11:40:54;24.50;99.90
11961;DHT22;6040;49.358;11.140;2023-07-29T11:43:21;24.30;99.90
11961;DHT22;6040;49.358;11.140;2023-07-29T11:45:48;24.20;99.90
11961;DHT22;6040;49.358;11.140;2023-07-29T11:48:15;23.90;99.90
11961;DHT22;6040;49.358;11.140;2023-07-29T11:50:42;23.80;99.90
11961;DHT22;6040;49.358;11.140;2023-07-29T11:53:11;23.80;99.90
11961;DHT22;6040;49.358;11.140;2023-07-29T11:55:38;23.80;99.90
11961;DHT22;6040;49.358;11.140;2023-07-29T11:58:05;23.80;99.90
11961;DHT22;6040;49.358;11.140;2023-07-29T12:00:31;23.90;99.90
11961;DHT22;6040;49.358;11.140;2023-07-29T12:02:58;24.00;99.90
11961;DHT22;6040;49.358;11.140;2023-07-29T12:05:26;24.30;99.90
11961;DHT22;6040;49.358;11.140;2023-07-29T12:07:53;24.50;99.90
11961;DHT22;6040;49.358;11.140;2023-07-29T12:10:22;24.50;99.90
11961;DHT22;6040;49.358;11.140;2023-07-29T12:12:49;24.50;99.90
11961;DHT22;6040;49.358;11.140;2023-07-29T12:15:23;24.50;99.90
11961;DHT22;6040;49.358;11.140;2023-07-29T12:17:53;24.60;99.90
11961;DHT22;6040;49.358;11.140;2023-07-29T12:20:21;24.70;99.90
11961;DHT22;6040;49.358;11.140;2023-07-29T12:22:52;24.60;99.90
11961;DHT22;6040;49.358;11.140;2023-07-29T12:25:19;24.80;99.90
11961;DHT22;6040;49.358;11.140;2023-07-29T12:27:47;25.10;99.90
11961;DHT22;6040;49.358;11.140;2023-07-29T12:30:14;25.20;99.90
11961;DHT22;6040;49.358;11.140;2023-07-29T12:32:44;25.50;99.90
11961;DHT22;6040;49.358;11.140;2023-07-29T12:35:12;26.10;99.90
11961;DHT22;6040;49.358;11.140;2023-07-29T12:37:39;26.30;99.90
11961;DHT22;6040;49.358;11.140;2023-07-29T12:40:19;26.50;99.90
11961;DHT22;6040;49.358;11.140;2023-07-29T12:42:48;25.90;99.90
11961;DHT22;6040;49.358;11.140;2023-07-29T12:45:16;25.60;99.90
11961;DHT22;6040;49.358;11.140;2023-07-29T12:47:42;25.90;99.90
11961;DHT22;6040;49.358;11.140;2023-07-29T12:50:10;26.10;99.90
11961;DHT22;6040;49.358;11.140;2023-07-29T12:52:36;26.20;99.90
11961;DHT22;6040;49.358;11.140;2023-07-29T12:55:04;26.40;99.90
11961;DHT22;6040;49.358;11.140;2023-07-29T12:57:31;26.10;99.90
11961;DHT22;6040;49.358;11.140;2023-07-29T12:59:59;26.70;99.90
11961;DHT22;6040;49.358;11.140;2023-07-29T13:02:26;26.70;99.90
11961;DHT22;6040;49.358;11.140;2023-07-29T13:04:52;26.50;99.90
11961;DHT22;6040;49.358;11.140;2023-07-29T13:07:19;26.50;99.90
11961;DHT22;6040;49.358;11.140;2023-07-29T13:09:46;26.80;99.90
11961;DHT22;6040;49.358;11.140;2023-07-29T13:12:13;26.80;99.90
11961;DHT22;6040;49.358;11.140;2023-07-29T13:14:40;26.90;99.90
11961;DHT22;6040;49.358;11.140;2023-07-29T13:17:08;27.00;99.90
11961;DHT22;6040;49.358;11.140;2023-07-29T13:19:34;27.00;99.90
11961;DHT22;6040;49.358;11.140;2023-07-29T13:22:01;26.80;99.90
11961;DHT22;6040;49.358;11.140;2023-07-29T13:24:28;26.60;99.90
11961;DHT22;6040;49.358;11.140;2023-07-29T13:26:55;26.60;99.90
11961;DHT22;6040;49.358;11.140;2023-07-29T13:29:22;26.80;99.90
11961;DHT22;6040;49.358;11.140;2023-07-29T13:31:49;26.90;99.80
11961;DHT22;6040;49.358;11.140;2023-07-29T13:34:17;26.60;99.10
11961;DHT22;6040;49.358;11.140;2023-07-29T13:36:44;26.30;99.90
11961;DHT22;6040;49.358;11.140;2023-07-29T13:39:10;26.00;99.90
11961;DHT22;6040;49.358;11.140;2023-07-29T13:41:37;26.10;99.90
11961;DHT22;6040;49.358;11.140;2023-07-29T13:44:04;26.30;99.90
11961;DHT22;6040;49.358;11.140;2023-07-29T13:46:31;26.20;99.90
11961;DHT22;6040;49.358;11.140;2023-07-29T13:48:58;26.10;99.90
11961;DHT22;6040;49.358;11.140;2023-07-29T13:51:26;26.00;99.90
11961;DHT22;6040;49.358;11.140;2023-07-29T13:53:53;26.10;99.90
11961;DHT22;6040;49.358;11.140;2023-07-29T13:56:19;26.40;99.90
11961;DHT22;6040;49.358;11.140;2023-07-29T13:58:46;26.20;99.90
11961;DHT22;6040;49.358;11.140;2023-07-29T14:01:13;26.00;99.90
11961;DHT22;6040;49.358;11.140;2023-07-29T14:03:40;25.90;99.90
11961;DHT22;6040;49.358;11.140;2023-07-29T14:06:06;25.70;99.90
11961;DHT22;6040;49.358;11.140;2023-07-29T14:08:35;25.50;99.90
11961;DHT22;6040;49.358;11.140;2023-07-29T14:11:01;25.30;99.90
11961;DHT22;6040;49.358;11.140;2023-07-29T14:13:28;25.20;99.90
11961;DHT22;6040;49.358;11.140;2023-07-29T14:15:55;25.30;99.90
11961;DHT22;6040;49.358;11.140;2023-07-29T14:18:22;25.10;99.90
11961;DHT22;6040;49.358;11.140;2023-07-29T14:20:48;25.10;99.90
11961;DHT22;6040;49.358;11.140;2023-07-29T14:23:16;25.00;99.90
11961;DHT22;6040;49.358;11.140;2023-07-29T14:25:45;25.10;99.90
11961;DHT22;6040;49.358;11.140;2023-07-29T14:28:13;25.30;99.90
11961;DHT22;6040;49.358;11.140;2023-07-29T14:30:40;25.40;99.90
11961;DHT22;6040;49.358;11.140;2023-07-29T14:33:07;25.50;99.90
11961;DHT22;6040;49.358;11.140;2023-07-29T14:35:34;25.50;99.90
11961;DHT22;6040;49.358;11.140;2023-07-29T14:38:01;25.50;99.90
11961;DHT22;6040;49.358;11.140;2023-07-29T14:40:28;25.60;99.90
11961;DHT22;6040;49.358;11.140;2023-07-29T14:42:56;25.50;99.90
11961;DHT22;6040;49.358;11.140;2023-07-29T14:45:23;25.60;99.90
11961;DHT22;6040;49.358;11.140;2023-07-29T14:47:50;25.50;99.90
11961;DHT22;6040;49.358;11.140;2023-07-29T14:50:17;25.40;99.90
11961;DHT22;6040;49.358;11.140;2023-07-29T14:52:43;25.40;99.90
11961;DHT22;6040;49.358;11.140;2023-07-29T14:55:10;25.20;99.90
11961;DHT22;6040;49.358;11.140;2023-07-29T14:57:37;25.20;99.90
11961;DHT22;6040;49.358;11.140;2023-07-29T15:00:08;25.10;99.90
11961;DHT22;6040;49.358;11.140;2023-07-29T15:02:35;25.10;99.90
11961;DHT22;6040;49.358;11.140;2023-07-29T15:05:02;25.30;99.90
11961;DHT22;6040;49.358;11.140;2023-07-29T15:07:29;25.60;99.40
11961;DHT22;6040;49.358;11.140;2023-07-29T15:09:56;25.70;99.40
11961;DHT22;6040;49.358;11.140;2023-07-29T15:12:23;25.80;98.90
11961;DHT22;6040;49.358;11.140;2023-07-29T15:14:50;25.80;98.90
11961;DHT22;6040;49.358;11.140;2023-07-29T15:17:18;25.70;98.10
11961;DHT22;6040;49.358;11.140;2023-07-29T15:19:45;25.70;98.10
11961;DHT22;6040;49.358;11.140;2023-07-29T15:22:14;25.80;98.30
11961;DHT22;6040;49.358;11.140;2023-07-29T15:24:41;25.90;99.00
11961;DHT22;6040;49.358;11.140;2023-07-29T15:27:09;26.00;98.70
11961;DHT22;6040;49.358;11.140;2023-07-29T15:29:36;25.90;98.20
11961;DHT22;6040;49.358;11.140;2023-07-29T15:32:03;25.70;98.20